createdAt,value
2022-08-26T00:00:04.538Z,15.80
2022-08-26T00:00:39.861Z,15.20
2022-08-26T00:01:14.955Z,21.00
2022-08-26T00:01:50.245Z,15.90
2022-08-26T00:02:25.598Z,13.80
2022-08-26T00:03:00.635Z,15.50
2022-08-26T00:03:36.001Z,14.20
2022-08-26T00:04:11.190Z,18.10
2022-08-26T00:04:46.442Z,20.10
2022-08-26T00:05:21.966Z,14.80
2022-08-26T00:05:57.403Z,15.10
2022-08-26T00:06:32.528Z,15.10
2022-08-26T00:07:08.035Z,13.40
2022-08-26T00:07:50.278Z,18.10
2022-08-26T00:08:25.277Z,23.80
2022-08-26T00:09:00.602Z,18.00
2022-08-26T00:09:37.259Z,14.40
2022-08-26T00:10:11.438Z,14.20
2022-08-26T00:10:46.967Z,17.20
2022-08-26T00:11:26.934Z,14.50
2022-08-26T00:11:57.350Z,17.40
2022-08-26T00:12:37.474Z,19.60
2022-08-26T00:13:07.849Z,14.30
2022-08-26T00:13:47.909Z,14.40
2022-08-26T00:14:18.222Z,16.50
2022-08-26T00:14:53.322Z,17.40
2022-08-26T00:15:28.429Z,14.80
2022-08-26T00:16:03.847Z,17.10
2022-08-26T00:16:40.978Z,15.90
2022-08-26T00:17:14.098Z,17.20
2022-08-26T00:17:49.092Z,19.40
2022-08-26T00:18:24.172Z,15.70
2022-08-26T00:18:59.413Z,14.70
2022-08-26T00:19:34.700Z,13.50
2022-08-26T00:20:09.798Z,15.90
2022-08-26T00:20:44.973Z,18.90
2022-08-26T00:21:20.285Z,20.40
2022-08-26T00:21:55.810Z,18.10
2022-08-26T00:22:30.773Z,16.60
2022-08-26T00:23:06.275Z,21.90
2022-08-26T00:23:41.589Z,19.60
2022-08-26T00:24:16.682Z,18.50
2022-08-26T00:24:52.285Z,28.80
2022-08-26T00:25:27.705Z,22.80
2022-08-26T00:26:03.214Z,13.80
2022-08-26T00:26:38.301Z,16.10
2022-08-26T00:27:13.489Z,16.90
2022-08-26T00:27:48.723Z,15.40
2022-08-26T00:28:24.110Z,16.50
2022-08-26T00:28:59.384Z,15.30
2022-08-26T00:29:35.546Z,18.60
2022-08-26T00:30:09.907Z,19.00
2022-08-26T00:30:45.509Z,14.00
2022-08-26T00:31:20.747Z,14.00
2022-08-26T00:31:56.274Z,14.90
2022-08-26T00:32:31.522Z,15.90
2022-08-26T00:33:07.150Z,14.80
2022-08-26T00:33:42.136Z,16.30
2022-08-26T00:34:19.356Z,19.80
2022-08-26T00:34:53.009Z,19.90
2022-08-26T00:35:28.062Z,17.20
2022-08-26T00:36:03.407Z,15.00
2022-08-26T00:36:38.721Z,18.50
2022-08-26T00:37:16.129Z,21.60
2022-08-26T00:37:48.951Z,16.60
2022-08-26T00:38:24.137Z,19.30
2022-08-26T00:38:59.266Z,17.60
2022-08-26T00:39:34.842Z,17.10
2022-08-26T00:40:10.222Z,17.20
2022-08-26T00:40:45.404Z,14.60
2022-08-26T00:41:21.045Z,17.30
2022-08-26T00:41:56.123Z,16.80
2022-08-26T00:42:31.445Z,17.40
2022-08-26T00:43:07.247Z,18.50
2022-08-26T00:43:47.405Z,18.70
2022-08-26T00:44:17.505Z,17.40
2022-08-26T00:44:52.768Z,17.30
2022-08-26T00:45:27.964Z,18.50
2022-08-26T00:46:03.476Z,16.30
2022-08-26T00:46:38.635Z,15.80
2022-08-26T00:47:13.839Z,16.30
2022-08-26T00:47:49.018Z,16.80
2022-08-26T00:48:24.308Z,16.80
2022-08-26T00:48:59.615Z,20.80
2022-08-26T00:49:34.818Z,19.30
2022-08-26T00:50:10.020Z,17.80
2022-08-26T00:50:45.318Z,17.70
2022-08-26T00:51:20.938Z,16.20
2022-08-26T00:51:56.246Z,18.20
2022-08-26T00:52:31.843Z,18.40
2022-08-26T00:53:07.324Z,17.50
2022-08-26T00:53:42.553Z,15.10
2022-08-26T00:54:17.559Z,16.80
2022-08-26T00:54:53.167Z,17.50
2022-08-26T00:55:37.714Z,18.90
2022-08-26T00:56:03.653Z,18.30
2022-08-26T00:56:38.911Z,17.30
2022-08-26T00:57:16.110Z,19.80
2022-08-26T00:57:49.434Z,17.10
2022-08-26T00:58:24.917Z,17.50
2022-08-26T00:59:00.121Z,16.60
2022-08-26T00:59:35.312Z,16.40
2022-08-26T01:00:10.907Z,15.30
2022-08-26T01:00:46.149Z,16.30
2022-08-26T01:01:23.041Z,19.70
2022-08-26T01:01:56.751Z,17.60
2022-08-26T01:02:32.097Z,15.10
2022-08-26T01:03:07.628Z,17.10
2022-08-26T01:03:42.937Z,17.80
2022-08-26T01:04:18.133Z,18.40
2022-08-26T01:04:55.850Z,18.30
2022-08-26T01:05:29.176Z,16.40
2022-08-26T01:06:04.419Z,14.30
2022-08-26T01:06:39.814Z,16.70
2022-08-26T01:07:15.371Z,17.50
2022-08-26T01:07:50.682Z,19.00
2022-08-26T01:08:25.983Z,19.20
2022-08-26T01:09:01.067Z,20.90
2022-08-26T01:09:36.554Z,17.10
2022-08-26T01:10:11.768Z,19.70
2022-08-26T01:10:46.964Z,17.30
2022-08-26T01:11:22.285Z,16.10
2022-08-26T01:11:57.486Z,18.10
2022-08-26T01:12:32.781Z,17.60
2022-08-26T01:13:08.354Z,17.50
2022-08-26T01:13:43.191Z,18.90
2022-08-26T01:14:18.365Z,17.90
2022-08-26T01:14:53.576Z,20.70
2022-08-26T01:15:29.060Z,20.40
2022-08-26T01:16:04.438Z,16.70
2022-08-26T01:16:39.571Z,18.10
2022-08-26T01:17:14.793Z,20.20
2022-08-26T01:17:49.893Z,20.20
2022-08-26T01:18:25.170Z,21.40
2022-08-26T01:19:00.553Z,18.60
2022-08-26T01:19:35.770Z,17.70
2022-08-26T01:20:18.071Z,20.90
2022-08-26T01:20:53.289Z,19.00
2022-08-26T01:21:29.454Z,26.60
2022-08-26T01:22:04.399Z,23.00
2022-08-26T01:22:39.498Z,18.40
2022-08-26T01:23:14.925Z,17.50
2022-08-26T01:23:50.206Z,17.60
2022-08-26T01:24:25.645Z,18.10
2022-08-26T01:25:00.627Z,21.70
2022-08-26T01:25:35.693Z,19.60
2022-08-26T01:26:19.653Z,18.40
2022-08-26T01:26:46.319Z,19.80
2022-08-26T01:27:21.424Z,21.50
2022-08-26T01:27:56.549Z,21.50
2022-08-26T01:28:31.835Z,19.20
2022-08-26T01:29:07.081Z,18.70
2022-08-26T01:29:42.667Z,17.70
2022-08-26T01:30:18.271Z,19.10
2022-08-26T01:30:53.352Z,19.10
2022-08-26T01:31:28.623Z,17.10
2022-08-26T01:32:03.672Z,17.20
2022-08-26T01:32:39.043Z,17.50
2022-08-26T01:33:14.091Z,19.00
2022-08-26T01:33:49.224Z,16.40
2022-08-26T01:34:24.606Z,15.20
2022-08-26T01:34:59.925Z,17.80
2022-08-26T01:35:35.024Z,18.80
2022-08-26T01:36:10.396Z,17.40
2022-08-26T01:36:50.591Z,14.70
2022-08-26T01:37:21.017Z,16.60
2022-08-26T01:37:56.299Z,19.10
2022-08-26T01:38:31.563Z,16.10
2022-08-26T01:39:07.351Z,14.50
2022-08-26T01:39:41.976Z,17.50
2022-08-26T01:40:17.163Z,19.00
2022-08-26T01:40:52.688Z,16.90
2022-08-26T01:41:29.224Z,15.70
2022-08-26T01:42:03.475Z,18.90
2022-08-26T01:42:38.737Z,18.90
2022-08-26T01:43:13.962Z,17.40
2022-08-26T01:43:49.349Z,19.00
2022-08-26T01:44:24.579Z,17.90
2022-08-26T01:44:59.768Z,18.50
2022-08-26T01:45:35.225Z,22.80
2022-08-26T01:46:10.559Z,23.70
2022-08-26T01:46:45.666Z,21.60
2022-08-26T01:47:20.763Z,22.80
2022-08-26T01:47:56.885Z,19.10
2022-08-26T01:48:31.468Z,19.20
2022-08-26T01:49:06.781Z,19.00
2022-08-26T01:49:42.144Z,18.70
2022-08-26T01:50:28.175Z,17.10
2022-08-26T01:50:52.637Z,16.30
2022-08-26T01:51:27.705Z,20.60
2022-08-26T01:52:02.934Z,22.80
2022-08-26T01:52:38.124Z,19.50
2022-08-26T01:53:13.363Z,19.00
2022-08-26T01:53:48.536Z,21.70
2022-08-26T01:54:23.852Z,20.40
2022-08-26T01:54:59.149Z,18.80
2022-08-26T01:55:34.976Z,18.50
2022-08-26T01:56:09.880Z,18.20
2022-08-26T01:56:45.003Z,18.40
2022-08-26T01:57:20.197Z,20.90
2022-08-26T01:57:56.261Z,17.70
2022-08-26T01:58:30.606Z,19.40
2022-08-26T01:59:05.713Z,15.90
2022-08-26T01:59:40.801Z,19.90
2022-08-26T02:00:16.322Z,20.20
2022-08-26T02:00:51.787Z,20.70
2022-08-26T02:01:29.135Z,20.00
2022-08-26T02:02:02.153Z,23.00
2022-08-26T02:02:37.474Z,21.60
2022-08-26T02:03:12.966Z,20.20
2022-08-26T02:03:48.077Z,21.70
2022-08-26T02:04:23.234Z,21.50
2022-08-26T02:04:58.731Z,17.80
2022-08-26T02:05:34.003Z,18.20
2022-08-26T02:06:09.203Z,18.20
2022-08-26T02:06:44.104Z,20.50
2022-08-26T02:07:19.416Z,20.70
2022-08-26T02:07:54.511Z,23.20
2022-08-26T02:08:30.132Z,18.50
2022-08-26T02:09:05.336Z,17.70
2022-08-26T02:09:41.373Z,17.20
2022-08-26T02:10:16.058Z,19.10
2022-08-26T02:10:51.567Z,18.00
2022-08-26T02:11:26.958Z,22.20
2022-08-26T02:12:01.972Z,21.80
2022-08-26T02:12:37.558Z,23.70
2022-08-26T02:13:12.867Z,18.60
2022-08-26T02:13:48.347Z,24.00
2022-08-26T02:14:23.659Z,21.40
2022-08-26T02:14:58.953Z,17.60
2022-08-26T02:15:34.381Z,19.00
2022-08-26T02:16:09.581Z,20.80
2022-08-26T02:16:44.940Z,21.80
2022-08-26T02:17:21.251Z,24.90
2022-08-26T02:17:55.802Z,23.80
2022-08-26T02:18:30.899Z,19.90
2022-08-26T02:19:06.302Z,18.20
2022-08-26T02:19:41.499Z,19.80
2022-08-26T02:20:16.597Z,23.20
2022-08-26T02:20:51.890Z,20.80
2022-08-26T02:21:27.216Z,21.10
2022-08-26T02:22:02.549Z,22.50
2022-08-26T02:22:37.956Z,22.50
2022-08-26T02:23:12.774Z,20.40
2022-08-26T02:23:47.894Z,21.20
2022-08-26T02:24:22.879Z,21.80
2022-08-26T02:24:57.890Z,20.90
2022-08-26T02:25:33.080Z,21.80
2022-08-26T02:26:08.498Z,26.60
2022-08-26T02:26:43.786Z,23.30
2022-08-26T02:27:18.805Z,19.50
2022-08-26T02:27:54.190Z,16.80
2022-08-26T02:28:29.390Z,20.60
2022-08-26T02:29:04.677Z,22.80
2022-08-26T02:29:39.779Z,19.10
2022-08-26T02:30:15.374Z,18.20
2022-08-26T02:30:50.491Z,17.80
2022-08-26T02:31:25.952Z,19.60
2022-08-26T02:32:01.116Z,20.50
2022-08-26T02:32:36.521Z,17.40
2022-08-26T02:33:11.544Z,19.80
2022-08-26T02:33:46.633Z,21.60
2022-08-26T02:34:21.822Z,19.10
2022-08-26T02:34:56.926Z,19.30
2022-08-26T02:35:32.119Z,18.60
2022-08-26T02:36:07.421Z,19.90
2022-08-26T02:36:42.717Z,19.70
2022-08-26T02:37:18.145Z,18.80
2022-08-26T02:37:53.445Z,19.10
2022-08-26T02:38:28.767Z,22.30
2022-08-26T02:39:03.872Z,20.30
2022-08-26T02:39:39.088Z,18.60
2022-08-26T02:40:14.031Z,17.80
2022-08-26T02:40:49.089Z,19.00
2022-08-26T02:41:24.521Z,20.90
2022-08-26T02:41:59.756Z,19.80
2022-08-26T02:42:34.855Z,18.80
2022-08-26T02:43:10.447Z,23.50
2022-08-26T02:43:45.443Z,19.10
2022-08-26T02:44:20.627Z,18.20
2022-08-26T02:44:56.043Z,19.60
2022-08-26T02:45:31.114Z,22.80
2022-08-26T02:46:06.419Z,24.50
2022-08-26T02:46:41.573Z,22.40
2022-08-26T02:47:16.800Z,20.30
2022-08-26T02:47:52.397Z,19.60
2022-08-26T02:48:27.211Z,23.70
2022-08-26T02:49:02.512Z,23.60
2022-08-26T02:49:37.920Z,22.90
2022-08-26T02:50:13.111Z,21.70
2022-08-26T02:50:48.639Z,22.30
2022-08-26T02:51:24.031Z,23.30
2022-08-26T02:51:59.346Z,23.60
2022-08-26T02:52:34.527Z,20.20
2022-08-26T02:53:10.041Z,21.00
2022-08-26T02:53:45.150Z,18.60
2022-08-26T02:54:20.470Z,19.40
2022-08-26T02:54:55.916Z,18.70
2022-08-26T02:55:31.212Z,19.80
2022-08-26T02:56:06.415Z,20.40
2022-08-26T02:56:41.747Z,22.80
2022-08-26T02:57:16.952Z,18.70
2022-08-26T02:57:52.049Z,16.90
2022-08-26T02:58:26.962Z,18.80
2022-08-26T02:59:02.071Z,22.80
2022-08-26T02:59:37.368Z,21.10
2022-08-26T03:00:12.676Z,21.00
2022-08-26T03:00:52.991Z,23.70
2022-08-26T03:01:23.203Z,21.70
2022-08-26T03:01:58.507Z,25.30
2022-08-26T03:02:33.676Z,23.70
2022-08-26T03:03:08.815Z,24.50
2022-08-26T03:03:43.871Z,24.80
2022-08-26T03:04:19.184Z,25.40
2022-08-26T03:04:57.897Z,20.20
2022-08-26T03:05:29.784Z,25.00
2022-08-26T03:06:05.284Z,22.80
2022-08-26T03:06:40.700Z,21.10
2022-08-26T03:07:15.816Z,19.90
2022-08-26T03:07:51.218Z,21.50
2022-08-26T03:08:26.443Z,21.50
2022-08-26T03:09:01.657Z,28.10
2022-08-26T03:09:36.879Z,21.80
2022-08-26T03:10:12.174Z,21.80
2022-08-26T03:10:48.043Z,26.50
2022-08-26T03:11:23.191Z,24.40
2022-08-26T03:11:58.325Z,20.50
2022-08-26T03:12:33.428Z,17.90
2022-08-26T03:13:08.758Z,21.70
2022-08-26T03:13:43.832Z,22.80
2022-08-26T03:14:19.043Z,20.90
2022-08-26T03:14:54.134Z,20.90
2022-08-26T03:15:29.235Z,20.30
2022-08-26T03:16:04.406Z,18.40
2022-08-26T03:16:39.727Z,19.40
2022-08-26T03:17:14.840Z,21.40
2022-08-26T03:17:50.518Z,25.90
2022-08-26T03:18:25.852Z,26.20
2022-08-26T03:19:01.078Z,22.40
2022-08-26T03:19:36.371Z,19.80
2022-08-26T03:20:11.672Z,20.50
2022-08-26T03:20:46.969Z,20.60
2022-08-26T03:21:22.193Z,20.50
2022-08-26T03:21:57.912Z,23.00
2022-08-26T03:22:32.599Z,21.00
2022-08-26T03:23:08.182Z,20.30
2022-08-26T03:23:42.989Z,22.20
2022-08-26T03:24:18.194Z,22.70
2022-08-26T03:24:53.689Z,23.40
2022-08-26T03:25:29.173Z,24.20
2022-08-26T03:26:04.369Z,25.30
2022-08-26T03:26:39.889Z,25.90
2022-08-26T03:27:15.535Z,28.90
2022-08-26T03:27:50.746Z,25.90
2022-08-26T03:28:27.253Z,23.80
2022-08-26T03:29:01.149Z,32.20
2022-08-26T03:29:36.357Z,26.80
2022-08-26T03:30:11.750Z,20.90
2022-08-26T03:30:46.782Z,23.60
2022-08-26T03:31:22.063Z,23.70
2022-08-26T03:31:57.221Z,25.10
2022-08-26T03:32:32.524Z,29.40
2022-08-26T03:33:08.127Z,26.70
2022-08-26T03:33:43.109Z,25.90
2022-08-26T03:34:18.433Z,26.90
2022-08-26T03:34:53.441Z,22.70
2022-08-26T03:35:28.846Z,22.50
2022-08-26T03:36:04.228Z,19.90
2022-08-26T03:36:39.344Z,22.80
2022-08-26T03:37:14.536Z,24.40
2022-08-26T03:37:50.127Z,28.10
2022-08-26T03:38:25.226Z,22.90
2022-08-26T03:39:00.733Z,19.30
2022-08-26T03:39:36.343Z,25.00
2022-08-26T03:40:11.818Z,24.30
2022-08-26T03:40:46.871Z,20.60
2022-08-26T03:41:22.162Z,21.10
2022-08-26T03:41:57.586Z,22.60
2022-08-26T03:42:32.782Z,24.40
2022-08-26T03:43:09.536Z,27.00
2022-08-26T03:43:43.218Z,25.70
2022-08-26T03:44:18.323Z,23.40
2022-08-26T03:44:53.534Z,22.90
2022-08-26T03:45:29.100Z,22.90
2022-08-26T03:46:04.269Z,23.30
2022-08-26T03:46:39.518Z,24.00
2022-08-26T03:47:14.845Z,25.20
2022-08-26T03:47:50.143Z,26.50
2022-08-26T03:48:25.641Z,22.30
2022-08-26T03:49:00.552Z,21.70
2022-08-26T03:49:35.539Z,20.10
2022-08-26T03:50:10.655Z,21.10
2022-08-26T03:50:45.842Z,23.30
2022-08-26T03:51:21.258Z,25.00
2022-08-26T03:51:56.666Z,21.80
2022-08-26T03:52:31.953Z,23.50
2022-08-26T03:53:11.762Z,27.10
2022-08-26T03:53:42.446Z,25.10
2022-08-26T03:54:17.646Z,23.00
2022-08-26T03:54:53.036Z,30.20
2022-08-26T03:55:28.550Z,27.70
2022-08-26T03:56:03.871Z,26.80
2022-08-26T03:56:38.899Z,27.10
2022-08-26T03:57:14.199Z,25.40
2022-08-26T03:57:49.199Z,25.60
2022-08-26T03:58:24.101Z,25.70
2022-08-26T03:58:59.297Z,25.60
2022-08-26T03:59:34.801Z,24.40
2022-08-26T04:00:10.199Z,22.90
2022-08-26T04:00:45.324Z,22.20
2022-08-26T04:01:20.833Z,24.90
2022-08-26T04:01:55.870Z,24.60
2022-08-26T04:02:31.413Z,28.10
2022-08-26T04:03:06.624Z,29.40
2022-08-26T04:03:41.670Z,24.90
2022-08-26T04:04:16.751Z,27.40
2022-08-26T04:04:52.079Z,27.50
2022-08-26T04:05:27.087Z,23.40
2022-08-26T04:06:02.487Z,25.00
2022-08-26T04:06:37.819Z,22.40
2022-08-26T04:07:13.003Z,24.40
2022-08-26T04:07:48.598Z,27.90
2022-08-26T04:08:23.523Z,23.70
2022-08-26T04:08:59.197Z,24.90
2022-08-26T04:09:35.233Z,27.50
2022-08-26T04:10:09.892Z,31.40
2022-08-26T04:10:45.201Z,29.10
2022-08-26T04:11:20.474Z,38.50
2022-08-26T04:11:55.679Z,36.80
2022-08-26T04:12:30.872Z,23.60
2022-08-26T04:13:06.003Z,27.60
2022-08-26T04:13:40.912Z,29.00
2022-08-26T04:14:17.649Z,28.00
2022-08-26T04:14:51.492Z,26.20
2022-08-26T04:15:27.129Z,24.60
2022-08-26T04:16:02.591Z,26.80
2022-08-26T04:16:38.035Z,25.30
2022-08-26T04:17:13.557Z,25.20
2022-08-26T04:17:48.951Z,26.50
2022-08-26T04:18:24.146Z,30.10
2022-08-26T04:18:59.360Z,30.80
2022-08-26T04:19:34.649Z,26.00
2022-08-26T04:20:09.960Z,30.00
2022-08-26T04:20:45.064Z,27.50
2022-08-26T04:21:20.578Z,31.50
2022-08-26T04:21:55.801Z,31.70
2022-08-26T04:22:31.201Z,29.30
2022-08-26T04:23:06.558Z,27.00
2022-08-26T04:23:47.654Z,28.30
2022-08-26T04:24:17.660Z,29.50
2022-08-26T04:24:52.167Z,32.10
2022-08-26T04:25:27.279Z,28.90
2022-08-26T04:26:02.176Z,31.70
2022-08-26T04:26:39.525Z,33.30
2022-08-26T04:27:12.969Z,27.00
2022-08-26T04:27:48.172Z,28.90
2022-08-26T04:28:23.259Z,31.00
2022-08-26T04:28:58.246Z,38.30
2022-08-26T04:29:33.665Z,37.20
2022-08-26T04:30:09.597Z,27.80
2022-08-26T04:30:44.683Z,31.70
2022-08-26T04:31:20.138Z,35.80
2022-08-26T04:31:55.802Z,35.80
2022-08-26T04:32:30.244Z,36.80
2022-08-26T04:33:12.928Z,33.60
2022-08-26T04:33:41.856Z,32.60
2022-08-26T04:34:16.586Z,36.50
2022-08-26T04:34:51.710Z,41.30
2022-08-26T04:35:26.881Z,33.20
2022-08-26T04:36:02.120Z,32.20
2022-08-26T04:36:37.411Z,37.80
2022-08-26T04:37:12.638Z,42.30
2022-08-26T04:37:47.619Z,36.40
2022-08-26T04:38:22.855Z,37.00
2022-08-26T04:38:58.155Z,36.00
2022-08-26T04:39:33.276Z,36.80
2022-08-26T04:40:08.570Z,35.20
2022-08-26T04:40:46.751Z,33.60
2022-08-26T04:41:19.329Z,33.70
2022-08-26T04:41:54.747Z,35.90
2022-08-26T04:42:29.854Z,34.20
2022-08-26T04:43:05.135Z,38.60
2022-08-26T04:43:39.859Z,41.10
2022-08-26T04:44:14.966Z,35.50
2022-08-26T04:44:50.085Z,43.00
2022-08-26T04:45:25.115Z,41.30
2022-08-26T04:46:00.204Z,41.80
2022-08-26T04:46:35.519Z,43.60
2022-08-26T04:47:10.966Z,44.10
2022-08-26T04:47:46.374Z,45.10
2022-08-26T04:48:21.908Z,41.40
2022-08-26T04:48:56.996Z,44.30
2022-08-26T04:49:35.541Z,46.70
2022-08-26T04:50:07.860Z,45.90
2022-08-26T04:50:43.064Z,43.50
2022-08-26T04:51:18.371Z,42.20
2022-08-26T04:51:53.674Z,43.50
2022-08-26T04:52:28.885Z,48.40
2022-08-26T04:53:04.003Z,49.10
2022-08-26T04:53:39.455Z,46.40
2022-08-26T04:54:15.050Z,50.30
2022-08-26T04:54:50.476Z,51.10
2022-08-26T04:55:38.537Z,50.40
2022-08-26T04:56:00.908Z,57.30
2022-08-26T04:56:36.254Z,54.70
2022-08-26T04:57:11.633Z,50.00
2022-08-26T04:57:46.853Z,51.20
2022-08-26T04:58:22.292Z,48.50
2022-08-26T04:58:57.729Z,48.60
2022-08-26T04:59:36.012Z,54.30
2022-08-26T05:00:08.450Z,55.10
2022-08-26T05:00:43.491Z,56.20
2022-08-26T05:01:18.645Z,67.50
2022-08-26T05:01:54.128Z,55.90
2022-08-26T05:02:29.455Z,55.50
2022-08-26T05:03:04.726Z,57.30
2022-08-26T05:03:40.146Z,54.80
2022-08-26T05:04:16.207Z,57.00
2022-08-26T05:04:51.893Z,58.80
2022-08-26T05:05:25.760Z,57.60
2022-08-26T05:06:01.051Z,58.60
2022-08-26T05:06:37.198Z,63.00
2022-08-26T05:07:11.996Z,59.40
2022-08-26T05:07:47.429Z,57.70
2022-08-26T05:08:22.631Z,58.30
2022-08-26T05:08:58.157Z,54.60
2022-08-26T05:09:33.454Z,59.50
2022-08-26T05:10:08.918Z,57.10
2022-08-26T05:10:43.800Z,66.60
2022-08-26T05:11:19.324Z,69.40
2022-08-26T05:11:54.913Z,62.10
2022-08-26T05:12:30.155Z,57.00
2022-08-26T05:13:05.451Z,60.30
2022-08-26T05:13:40.878Z,62.00
2022-08-26T05:14:15.898Z,56.00
2022-08-26T05:14:51.124Z,62.00
2022-08-26T05:15:26.322Z,63.40
2022-08-26T05:16:01.965Z,63.80
2022-08-26T05:16:37.463Z,59.60
2022-08-26T05:17:14.991Z,59.00
2022-08-26T05:17:48.044Z,60.20
2022-08-26T05:18:23.286Z,64.80
2022-08-26T05:18:58.882Z,61.40
2022-08-26T05:19:34.023Z,59.90
2022-08-26T05:20:09.534Z,61.30
2022-08-26T05:20:44.887Z,60.00
2022-08-26T05:21:20.547Z,60.50
2022-08-26T05:21:55.885Z,63.30
2022-08-26T05:22:31.292Z,61.80
2022-08-26T05:23:06.933Z,66.90
2022-08-26T05:23:42.166Z,66.20
2022-08-26T05:24:17.907Z,62.70
2022-08-26T05:24:52.596Z,61.40
2022-08-26T05:25:27.811Z,62.30
2022-08-26T05:26:04.942Z,62.50
2022-08-26T05:26:38.460Z,59.60
2022-08-26T05:27:13.539Z,57.50
2022-08-26T05:27:48.770Z,64.00
2022-08-26T05:28:23.786Z,61.10
2022-08-26T05:28:58.901Z,55.00
2022-08-26T05:29:34.305Z,50.40
2022-08-26T05:30:09.822Z,51.70
2022-08-26T05:30:44.996Z,60.30
2022-08-26T05:31:20.309Z,57.40
2022-08-26T05:31:56.028Z,51.90
2022-08-26T05:32:30.984Z,49.10
2022-08-26T05:33:06.214Z,52.20
2022-08-26T05:33:41.674Z,51.40
2022-08-26T05:34:16.875Z,54.50
2022-08-26T05:34:52.295Z,54.70
2022-08-26T05:35:27.527Z,55.20
2022-08-26T05:36:02.731Z,56.60
2022-08-26T05:36:38.052Z,57.20
2022-08-26T05:37:13.679Z,57.80
2022-08-26T05:37:48.067Z,53.10
2022-08-26T05:38:23.332Z,56.70
2022-08-26T05:38:58.374Z,61.90
2022-08-26T05:39:33.429Z,64.30
2022-08-26T05:40:08.949Z,65.50
2022-08-26T05:40:44.149Z,63.80
2022-08-26T05:41:19.571Z,66.00
2022-08-26T05:41:54.777Z,61.10
2022-08-26T05:42:29.887Z,58.20
2022-08-26T05:43:06.204Z,67.40
2022-08-26T05:43:41.601Z,68.10
2022-08-26T05:44:16.989Z,60.30
2022-08-26T05:44:55.391Z,61.40
2022-08-26T05:45:27.436Z,60.00
2022-08-26T05:46:02.641Z,59.50
2022-08-26T05:46:38.114Z,62.80
2022-08-26T05:47:13.272Z,58.70
2022-08-26T05:47:48.521Z,58.30
2022-08-26T05:48:24.438Z,55.90
2022-08-26T05:48:58.920Z,52.90
2022-08-26T05:49:34.346Z,57.40
2022-08-26T05:50:09.645Z,59.30
2022-08-26T05:50:45.156Z,61.50
2022-08-26T05:51:23.982Z,63.90
2022-08-26T05:51:55.617Z,69.40
2022-08-26T05:52:30.916Z,71.50
2022-08-26T05:53:06.037Z,66.10
2022-08-26T05:53:43.988Z,63.20
2022-08-26T05:54:22.084Z,65.30
2022-08-26T05:54:52.254Z,60.80
2022-08-26T05:55:27.588Z,63.30
2022-08-26T05:56:02.874Z,72.80
2022-08-26T05:56:38.093Z,70.40
2022-08-26T05:57:13.396Z,68.70
2022-08-26T05:57:48.513Z,64.30
2022-08-26T05:58:23.743Z,74.30
2022-08-26T05:58:59.727Z,79.40
2022-08-26T05:59:34.202Z,71.40
2022-08-26T06:00:09.318Z,74.30
2022-08-26T06:00:44.531Z,75.50
2022-08-26T06:01:19.700Z,74.80
2022-08-26T06:01:55.354Z,76.80
2022-08-26T06:02:30.295Z,77.20
2022-08-26T06:03:05.726Z,71.00
2022-08-26T06:03:40.802Z,73.20
2022-08-26T06:04:15.954Z,78.70
2022-08-26T06:04:50.994Z,75.90
2022-08-26T06:05:26.107Z,74.70
2022-08-26T06:06:01.316Z,73.30
2022-08-26T06:06:36.443Z,69.10
2022-08-26T06:07:12.083Z,71.40
2022-08-26T06:07:47.240Z,77.00
2022-08-26T06:08:22.502Z,83.40
2022-08-26T06:09:05.626Z,82.90
2022-08-26T06:09:41.336Z,76.10
2022-08-26T06:10:31.688Z,84.50
2022-08-26T06:10:51.541Z,87.50
2022-08-26T06:11:26.897Z,84.10
2022-08-26T06:12:02.261Z,87.10
2022-08-26T06:12:37.989Z,86.00
2022-08-26T06:13:13.691Z,78.50
2022-08-26T06:13:48.956Z,71.10
2022-08-26T06:14:24.263Z,79.40
2022-08-26T06:14:59.270Z,80.20
2022-08-26T06:15:34.624Z,76.30
2022-08-26T06:16:09.809Z,83.10
2022-08-26T06:16:45.121Z,87.30
2022-08-26T06:17:20.328Z,81.30
2022-08-26T06:17:55.741Z,88.10
2022-08-26T06:18:30.868Z,85.80
2022-08-26T06:19:10.554Z,82.20
2022-08-26T06:19:41.584Z,94.80
2022-08-26T06:20:16.868Z,97.60
2022-08-26T06:20:57.195Z,87.10
2022-08-26T06:21:27.641Z,78.70
2022-08-26T06:22:02.867Z,82.40
2022-08-26T06:22:38.140Z,83.20
2022-08-26T06:23:13.483Z,86.20
2022-08-26T06:23:48.918Z,80.80
2022-08-26T06:24:27.255Z,84.00
2022-08-26T06:24:59.244Z,77.80
2022-08-26T06:25:34.579Z,81.00
2022-08-26T06:26:10.983Z,84.50
2022-08-26T06:26:50.300Z,83.60
2022-08-26T06:27:20.819Z,82.90
2022-08-26T06:27:56.295Z,79.50
2022-08-26T06:28:31.301Z,81.50
2022-08-26T06:29:06.740Z,89.60
2022-08-26T06:29:42.052Z,87.40
2022-08-26T06:30:17.407Z,83.00
2022-08-26T06:30:52.835Z,79.20
2022-08-26T06:31:28.400Z,82.40
2022-08-26T06:32:03.560Z,93.60
2022-08-26T06:32:38.831Z,88.70
2022-08-26T06:33:14.126Z,81.70
2022-08-26T06:33:49.359Z,88.40
2022-08-26T06:34:29.851Z,81.30
2022-08-26T06:34:59.975Z,82.30
2022-08-26T06:35:35.276Z,84.90
2022-08-26T06:36:10.623Z,79.00
2022-08-26T06:36:46.078Z,78.80
2022-08-26T06:37:21.549Z,75.50
2022-08-26T06:37:56.737Z,82.60
2022-08-26T06:38:32.266Z,87.30
2022-08-26T06:39:07.784Z,85.70
2022-08-26T06:39:43.115Z,84.20
2022-08-26T06:40:18.289Z,89.00
2022-08-26T06:40:53.462Z,80.60
2022-08-26T06:41:28.906Z,79.50
2022-08-26T06:42:06.262Z,84.70
2022-08-26T06:42:39.443Z,79.50
2022-08-26T06:43:14.846Z,84.30
2022-08-26T06:43:50.057Z,81.90
2022-08-26T06:44:25.312Z,87.10
2022-08-26T06:45:00.321Z,88.10
2022-08-26T06:45:35.438Z,78.40
2022-08-26T06:46:10.573Z,80.90
2022-08-26T06:46:46.221Z,76.20
2022-08-26T06:47:21.418Z,78.80
2022-08-26T06:47:56.489Z,79.60
2022-08-26T06:48:31.906Z,83.60
2022-08-26T06:49:07.232Z,86.20
2022-08-26T06:49:42.632Z,79.20
2022-08-26T06:50:17.732Z,87.70
2022-08-26T06:50:53.139Z,83.40
2022-08-26T06:51:28.699Z,76.60
2022-08-26T06:52:03.905Z,74.40
2022-08-26T06:52:39.041Z,78.30
2022-08-26T06:53:14.542Z,76.50
2022-08-26T06:53:49.761Z,85.20
2022-08-26T06:54:24.861Z,83.60
2022-08-26T06:55:00.107Z,80.70
2022-08-26T06:55:35.197Z,81.50
2022-08-26T06:56:10.625Z,78.20
2022-08-26T06:56:46.142Z,79.30
2022-08-26T06:57:21.303Z,76.60
2022-08-26T06:57:56.771Z,83.60
2022-08-26T06:58:32.185Z,77.50
2022-08-26T06:59:07.690Z,76.40
2022-08-26T06:59:42.710Z,81.40
2022-08-26T07:00:18.130Z,74.60
2022-08-26T07:00:53.569Z,70.80
2022-08-26T07:01:28.820Z,78.50
2022-08-26T07:02:04.118Z,89.20
2022-08-26T07:02:39.419Z,81.10
2022-08-26T07:03:14.566Z,72.00
2022-08-26T07:03:49.476Z,73.90
2022-08-26T07:04:24.814Z,71.60
2022-08-26T07:05:00.024Z,74.30
2022-08-26T07:05:35.776Z,71.40
2022-08-26T07:06:10.960Z,67.80
2022-08-26T07:06:46.601Z,70.90
2022-08-26T07:07:22.117Z,70.70
2022-08-26T07:07:56.903Z,71.50
2022-08-26T07:08:31.896Z,76.80
2022-08-26T07:09:07.194Z,77.50
2022-08-26T07:09:42.298Z,71.70
2022-08-26T07:10:17.500Z,72.40
2022-08-26T07:10:52.714Z,72.80
2022-08-26T07:11:27.828Z,73.10
2022-08-26T07:12:03.237Z,75.30
2022-08-26T07:12:38.639Z,76.40
2022-08-26T07:13:13.939Z,70.00
2022-08-26T07:13:49.090Z,65.70
2022-08-26T07:14:24.196Z,65.70
2022-08-26T07:14:59.487Z,78.00
2022-08-26T07:15:34.979Z,76.20
2022-08-26T07:16:10.578Z,72.00
2022-08-26T07:16:45.956Z,74.90
2022-08-26T07:17:21.158Z,71.60
2022-08-26T07:17:56.170Z,71.50
2022-08-26T07:18:31.290Z,73.80
2022-08-26T07:19:11.238Z,79.00
2022-08-26T07:19:41.819Z,74.90
2022-08-26T07:20:17.153Z,84.30
2022-08-26T07:20:52.252Z,82.10
2022-08-26T07:21:27.679Z,78.50
2022-08-26T07:22:03.487Z,76.50
2022-08-26T07:22:38.614Z,72.50
2022-08-26T07:23:13.705Z,67.50
2022-08-26T07:23:49.082Z,65.60
2022-08-26T07:24:24.141Z,65.20
2022-08-26T07:24:59.596Z,74.80
2022-08-26T07:25:35.028Z,78.20
2022-08-26T07:26:10.581Z,72.00
2022-08-26T07:26:45.887Z,72.00
2022-08-26T07:27:21.095Z,72.50
2022-08-26T07:27:56.217Z,67.30
2022-08-26T07:28:31.336Z,65.60
2022-08-26T07:29:06.761Z,65.00
2022-08-26T07:29:42.059Z,64.70
2022-08-26T07:30:17.270Z,66.50
2022-08-26T07:30:52.629Z,72.20
2022-08-26T07:31:27.877Z,76.40
2022-08-26T07:32:02.930Z,78.80
2022-08-26T07:32:38.342Z,69.40
2022-08-26T07:33:13.635Z,71.40
2022-08-26T07:33:49.148Z,65.60
2022-08-26T07:34:24.265Z,61.60